Terminal Aerodrome Forecast
Issued by NWS North Platte, NE

Home | Current Version | Previous Version | Text Only | Print | Product List | Glossary Off
Versions: 1 2 3 4 5 6 7 8 9 10 11 12 13 14

986
FTUS43 KLBF 051726
TAFVTN
TAF
KVTN 051726Z 0518/0618 20010KT P6SM SCT200
     FM051900 19012G22KT P6SM SCT200
     FM060100 18011KT P6SM SKC
     FM061500 21014KT P6SM SKC=

USA.gov is the U.S. government's official web portal to all federal, state and local government web resources and services.